sensor_id;sensor_type;location;lat;lon;timestamp;P1;durP1;ratioP1;P2;durP2;ratioP2
61702;SDS011;47622;47.726;3.298;2023-07-31T00:00:50;3.83;;;2.30;;
61702;SDS011;47622;47.726;3.298;2023-07-31T00:03:16;7.70;;;2.83;;
61702;SDS011;47622;47.726;3.298;2023-07-31T00:05:41;4.25;;;2.38;;
61702;SDS011;47622;47.726;3.298;2023-07-31T00:08:07;6.93;;;2.60;;
61702;SDS011;47622;47.726;3.298;2023-07-31T00:10:32;3.80;;;1.70;;
61702;SDS011;47622;47.726;3.298;2023-07-31T00:12:58;5.03;;;2.22;;
61702;SDS011;47622;47.726;3.298;2023-07-31T00:15:24;4.75;;;2.45;;
61702;SDS011;47622;47.726;3.298;2023-07-31T00:17:50;7.10;;;2.63;;
61702;SDS011;47622;47.726;3.298;2023-07-31T00:20:15;5.30;;;2.30;;
61702;SDS011;47622;47.726;3.298;2023-07-31T00:22:41;5.13;;;2.38;;
61702;SDS011;47622;47.726;3.298;2023-07-31T00:25:06;8.50;;;2.15;;
61702;SDS011;47622;47.726;3.298;2023-07-31T00:27:32;4.70;;;2.20;;
61702;SDS011;47622;47.726;3.298;2023-07-31T00:29:58;4.30;;;2.30;;
61702;SDS011;47622;47.726;3.298;2023-07-31T00:32:24;6.25;;;2.20;;
61702;SDS011;47622;47.726;3.298;2023-07-31T00:34:50;3.58;;;2.25;;
61702;SDS011;47622;47.726;3.298;2023-07-31T00:37:15;4.68;;;2.35;;
61702;SDS011;47622;47.726;3.298;2023-07-31T00:39:41;5.75;;;2.58;;
61702;SDS011;47622;47.726;3.298;2023-07-31T00:42:07;3.15;;;2.17;;
61702;SDS011;47622;47.726;3.298;2023-07-31T00:44:32;4.95;;;2.38;;
61702;SDS011;47622;47.726;3.298;2023-07-31T00:46:58;5.05;;;2.20;;
61702;SDS011;47622;47.726;3.298;2023-07-31T00:49:24;8.43;;;2.60;;
61702;SDS011;47622;47.726;3.298;2023-07-31T00:51:50;6.00;;;2.30;;
61702;SDS011;47622;47.726;3.298;2023-07-31T00:54:15;7.93;;;2.50;;
61702;SDS011;47622;47.726;3.298;2023-07-31T00:56:41;5.78;;;2.20;;
61702;SDS011;47622;47.726;3.298;2023-07-31T00:59:10;5.65;;;2.05;;
61702;SDS011;47622;47.726;3.298;2023-07-31T01:01:36;7.15;;;2.03;;
61702;SDS011;47622;47.726;3.298;2023-07-31T01:04:02;4.32;;;2.03;;
61702;SDS011;47622;47.726;3.298;2023-07-31T01:06:37;5.45;;;2.38;;
61702;SDS011;47622;47.726;3.298;2023-07-31T01:09:18;5.97;;;2.35;;
61702;SDS011;47622;47.726;3.298;2023-07-31T01:12:00;4.05;;;2.22;;
61702;SDS011;47622;47.726;3.298;2023-07-31T01:14:27;5.10;;;2.00;;
61702;SDS011;47622;47.726;3.298;2023-07-31T01:16:54;7.20;;;2.55;;
61702;SDS011;47622;47.726;3.298;2023-07-31T01:19:21;5.40;;;2.17;;
61702;SDS011;47622;47.726;3.298;2023-07-31T01:24:30;6.15;;;3.03;;
61702;SDS011;47622;47.726;3.298;2023-07-31T01:27:12;3.40;;;1.85;;
61702;SDS011;47622;47.726;3.298;2023-07-31T01:29:43;4.40;;;2.20;;
61702;SDS011;47622;47.726;3.298;2023-07-31T01:32:14;6.45;;;2.50;;
61702;SDS011;47622;47.726;3.298;2023-07-31T01:34:43;6.50;;;2.47;;
61702;SDS011;47622;47.726;3.298;2023-07-31T01:37:09;6.03;;;2.58;;
61702;SDS011;47622;47.726;3.298;2023-07-31T01:39:35;8.38;;;2.65;;
61702;SDS011;47622;47.726;3.298;2023-07-31T01:42:00;5.85;;;2.50;;
61702;SDS011;47622;47.726;3.298;2023-07-31T01:44:26;8.50;;;2.35;;
61702;SDS011;47622;47.726;3.298;2023-07-31T01:46:52;5.97;;;2.28;;
61702;SDS011;47622;47.726;3.298;2023-07-31T01:49:18;4.18;;;2.30;;
61702;SDS011;47622;47.726;3.298;2023-07-31T01:51:43;4.15;;;2.58;;
61702;SDS011;47622;47.726;3.298;2023-07-31T01:54:09;4.35;;;2.30;;
61702;SDS011;47622;47.726;3.298;2023-07-31T01:56:34;4.50;;;2.47;;
61702;SDS011;47622;47.726;3.298;2023-07-31T01:59:01;9.23;;;2.60;;
61702;SDS011;47622;47.726;3.298;2023-07-31T02:01:26;4.93;;;2.38;;
61702;SDS011;47622;47.726;3.298;2023-07-31T02:03:52;5.18;;;2.47;;
61702;SDS011;47622;47.726;3.298;2023-07-31T02:06:17;5.72;;;2.40;;
61702;SDS011;47622;47.726;3.298;2023-07-31T02:08:43;6.03;;;2.30;;
61702;SDS011;47622;47.726;3.298;2023-07-31T02:11:09;4.47;;;2.40;;
61702;SDS011;47622;47.726;3.298;2023-07-31T02:13:34;8.93;;;2.83;;
61702;SDS011;47622;47.726;3.298;2023-07-31T02:16:00;3.63;;;1.98;;
61702;SDS011;47622;47.726;3.298;2023-07-31T02:18:26;7.25;;;2.42;;
61702;SDS011;47622;47.726;3.298;2023-07-31T02:20:52;4.70;;;2.35;;
61702;SDS011;47622;47.726;3.298;2023-07-31T02:23:18;7.57;;;2.95;;
61702;SDS011;47622;47.726;3.298;2023-07-31T02:25:44;5.78;;;2.38;;
61702;SDS011;47622;47.726;3.298;2023-07-31T02:28:10;4.07;;;1.88;;
61702;SDS011;47622;47.726;3.298;2023-07-31T02:30:36;5.45;;;2.13;;
61702;SDS011;47622;47.726;3.298;2023-07-31T02:33:01;5.68;;;2.10;;
61702;SDS011;47622;47.726;3.298;2023-07-31T02:35:27;5.05;;;2.35;;
61702;SDS011;47622;47.726;3.298;2023-07-31T02:37:53;4.90;;;2.20;;
61702;SDS011;47622;47.726;3.298;2023-07-31T02:40:18;5.30;;;2.75;;
61702;SDS011;47622;47.726;3.298;2023-07-31T02:42:44;6.43;;;2.58;;
61702;SDS011;47622;47.726;3.298;2023-07-31T02:45:09;9.02;;;2.58;;
61702;SDS011;47622;47.726;3.298;2023-07-31T02:47:35;5.22;;;2.63;;
61702;SDS011;47622;47.726;3.298;2023-07-31T02:50:04;8.18;;;2.42;;
61702;SDS011;47622;47.726;3.298;2023-07-31T02:52:30;9.05;;;2.40;;
61702;SDS011;47622;47.726;3.298;2023-07-31T02:54:55;5.43;;;2.60;;
61702;SDS011;47622;47.726;3.298;2023-07-31T02:57:22;9.75;;;2.42;;
61702;SDS011;47622;47.726;3.298;2023-07-31T02:59:47;6.15;;;2.50;;
61702;SDS011;47622;47.726;3.298;2023-07-31T03:02:13;4.43;;;2.53;;
61702;SDS011;47622;47.726;3.298;2023-07-31T03:04:39;7.65;;;2.60;;
61702;SDS011;47622;47.726;3.298;2023-07-31T03:07:05;5.80;;;2.50;;
61702;SDS011;47622;47.726;3.298;2023-07-31T03:09:30;6.82;;;2.97;;
61702;SDS011;47622;47.726;3.298;2023-07-31T03:11:57;7.93;;;3.35;;
61702;SDS011;47622;47.726;3.298;2023-07-31T03:14:22;4.10;;;2.50;;
61702;SDS011;47622;47.726;3.298;2023-07-31T03:16:48;13.80;;;3.10;;
61702;SDS011;47622;47.726;3.298;2023-07-31T03:19:14;8.93;;;3.00;;
61702;SDS011;47622;47.726;3.298;2023-07-31T03:21:40;5.00;;;2.45;;
61702;SDS011;47622;47.726;3.298;2023-07-31T03:24:07;9.25;;;2.78;;
61702;SDS011;47622;47.726;3.298;2023-07-31T03:26:32;8.30;;;2.88;;
61702;SDS011;47622;47.726;3.298;2023-07-31T03:28:58;9.45;;;3.00;;
61702;SDS011;47622;47.726;3.298;2023-07-31T03:31:25;7.65;;;3.28;;
61702;SDS011;47622;47.726;3.298;2023-07-31T03:33:51;8.07;;;2.63;;
61702;SDS011;47622;47.726;3.298;2023-07-31T03:36:16;6.18;;;2.75;;
61702;SDS011;47622;47.726;3.298;2023-07-31T03:38:42;4.90;;;2.80;;
61702;SDS011;47622;47.726;3.298;2023-07-31T03:41:07;4.88;;;2.50;;
61702;SDS011;47622;47.726;3.298;2023-07-31T03:43:33;8.88;;;3.30;;
61702;SDS011;47622;47.726;3.298;2023-07-31T03:45:59;4.95;;;2.70;;
61702;SDS011;47622;47.726;3.298;2023-07-31T03:48:25;5.70;;;2.88;;
61702;SDS011;47622;47.726;3.298;2023-07-31T03:50:51;7.22;;;2.63;;
61702;SDS011;47622;47.726;3.298;2023-07-31T03:53:17;6.47;;;2.55;;
61702;SDS011;47622;47.726;3.298;2023-07-31T03:55:42;8.52;;;3.50;;
61702;SDS011;47622;47.726;3.298;2023-07-31T03:58:08;7.25;;;2.78;;
61702;SDS011;47622;47.726;3.298;2023-07-31T04:00:34;6.07;;;2.78;;
61702;SDS011;47622;47.726;3.298;2023-07-31T04:02:59;6.63;;;3.15;;
61702;SDS011;47622;47.726;3.298;2023-07-31T04:05:25;4.75;;;2.55;;
61702;SDS011;47622;47.726;3.298;2023-07-31T04:07:51;6.50;;;3.38;;
61702;SDS011;47622;47.726;3.298;2023-07-31T04:10:17;4.65;;;3.03;;
61702;SDS011;47622;47.726;3.298;2023-07-31T04:12:43;7.97;;;2.95;;
61702;SDS011;47622;47.726;3.298;2023-07-31T04:15:09;6.55;;;2.95;;
61702;SDS011;47622;47.726;3.298;2023-07-31T04:17:35;6.80;;;2.88;;
61702;SDS011;47622;47.726;3.298;2023-07-31T04:20:00;8.25;;;3.05;;
61702;SDS011;47622;47.726;3.298;2023-07-31T04:22:26;6.07;;;2.85;;
61702;SDS011;47622;47.726;3.298;2023-07-31T04:24:51;8.52;;;3.20;;
61702;SDS011;47622;47.726;3.298;2023-07-31T04:27:17;6.57;;;2.78;;
61702;SDS011;47622;47.726;3.298;2023-07-31T04:29:42;6.13;;;2.67;;
61702;SDS011;47622;47.726;3.298;2023-07-31T04:32:11;8.57;;;3.25;;
61702;SDS011;47622;47.726;3.298;2023-07-31T04:34:36;11.65;;;2.83;;
61702;SDS011;47622;47.726;3.298;2023-07-31T04:37:02;5.68;;;2.75;;
61702;SDS011;47622;47.726;3.298;2023-07-31T04:39:28;6.60;;;2.95;;
61702;SDS011;47622;47.726;3.298;2023-07-31T04:41:55;6.05;;;3.17;;
61702;SDS011;47622;47.726;3.298;2023-07-31T04:44:20;8.98;;;3.00;;
61702;SDS011;47622;47.726;3.298;2023-07-31T04:46:46;9.52;;;3.78;;
61702;SDS011;47622;47.726;3.298;2023-07-31T04:49:11;7.95;;;3.22;;
61702;SDS011;47622;47.726;3.298;2023-07-31T04:51:37;6.47;;;2.90;;
61702;SDS011;47622;47.726;3.298;2023-07-31T04:54:04;5.43;;;2.85;;
61702;SDS011;47622;47.726;3.298;2023-07-31T04:56:29;7.57;;;3.10;;
61702;SDS011;47622;47.726;3.298;2023-07-31T04:58:55;7.63;;;2.97;;
61702;SDS011;47622;47.726;3.298;2023-07-31T05:01:20;5.93;;;2.95;;
61702;SDS011;47622;47.726;3.298;2023-07-31T05:03:46;6.80;;;2.97;;
61702;SDS011;47622;47.726;3.298;2023-07-31T05:06:11;5.25;;;3.38;;
61702;SDS011;47622;47.726;3.298;2023-07-31T05:08:38;5.03;;;2.90;;
61702;SDS011;47622;47.726;3.298;2023-07-31T05:11:04;9.25;;;2.83;;
61702;SDS011;47622;47.726;3.298;2023-07-31T05:13:30;5.82;;;2.90;;
61702;SDS011;47622;47.726;3.298;2023-07-31T05:15:55;5.47;;;3.17;;
61702;SDS011;47622;47.726;3.298;2023-07-31T05:18:21;5.57;;;2.90;;
61702;SDS011;47622;47.726;3.298;2023-07-31T05:20:46;8.98;;;3.33;;
61702;SDS011;47622;47.726;3.298;2023-07-31T05:23:12;7.75;;;3.25;;
61702;SDS011;47622;47.726;3.298;2023-07-31T05:25:38;9.18;;;3.20;;
61702;SDS011;47622;47.726;3.298;2023-07-31T05:28:03;8.40;;;3.25;;
61702;SDS011;47622;47.726;3.298;2023-07-31T05:30:32;7.25;;;3.05;;
61702;SDS011;47622;47.726;3.298;2023-07-31T05:32:57;7.97;;;3.25;;
61702;SDS011;47622;47.726;3.298;2023-07-31T05:35:23;7.93;;;3.22;;
61702;SDS011;47622;47.726;3.298;2023-07-31T05:37:48;9.35;;;3.20;;
61702;SDS011;47622;47.726;3.298;2023-07-31T05:40:14;6.85;;;3.40;;
61702;SDS011;47622;47.726;3.298;2023-07-31T05:42:41;6.05;;;3.15;;
61702;SDS011;47622;47.726;3.298;2023-07-31T05:45:07;8.57;;;3.22;;
61702;SDS011;47622;47.726;3.298;2023-07-31T05:47:33;8.93;;;3.15;;
61702;SDS011;47622;47.726;3.298;2023-07-31T05:49:58;8.05;;;3.28;;
61702;SDS011;47622;47.726;3.298;2023-07-31T05:52:25;7.47;;;3.20;;
61702;SDS011;47622;47.726;3.298;2023-07-31T05:54:51;4.53;;;2.78;;
61702;SDS011;47622;47.726;3.298;2023-07-31T05:57:16;8.70;;;2.90;;
61702;SDS011;47622;47.726;3.298;2023-07-31T05:59:42;5.97;;;2.80;;
61702;SDS011;47622;47.726;3.298;2023-07-31T06:02:09;7.63;;;3.50;;
61702;SDS011;47622;47.726;3.298;2023-07-31T06:04:35;7.60;;;3.58;;
61702;SDS011;47622;47.726;3.298;2023-07-31T06:07:00;11.40;;;3.50;;
61702;SDS011;47622;47.726;3.298;2023-07-31T06:09:26;11.48;;;3.28;;
61702;SDS011;47622;47.726;3.298;2023-07-31T06:11:52;7.22;;;2.70;;
61702;SDS011;47622;47.726;3.298;2023-07-31T06:14:17;10.52;;;3.67;;
61702;SDS011;47622;47.726;3.298;2023-07-31T06:16:46;8.05;;;2.95;;
61702;SDS011;47622;47.726;3.298;2023-07-31T06:19:11;6.65;;;3.20;;
61702;SDS011;47622;47.726;3.298;2023-07-31T06:21:38;9.27;;;3.00;;
61702;SDS011;47622;47.726;3.298;2023-07-31T06:24:04;8.10;;;3.38;;
61702;SDS011;47622;47.726;3.298;2023-07-31T06:26:31;9.13;;;3.13;;
61702;SDS011;47622;47.726;3.298;2023-07-31T06:28:56;9.05;;;3.20;;
61702;SDS011;47622;47.726;3.298;2023-07-31T06:31:22;9.23;;;2.88;;
61702;SDS011;47622;47.726;3.298;2023-07-31T06:33:48;6.13;;;2.75;;
61702;SDS011;47622;47.726;3.298;2023-07-31T06:36:15;6.72;;;3.20;;
61702;SDS011;47622;47.726;3.298;2023-07-31T06:38:40;11.98;;;3.80;;
61702;SDS011;47622;47.726;3.298;2023-07-31T06:41:06;7.35;;;3.08;;
61702;SDS011;47622;47.726;3.298;2023-07-31T06:43:31;8.27;;;3.53;;
61702;SDS011;47622;47.726;3.298;2023-07-31T06:45:57;8.32;;;2.97;;
61702;SDS011;47622;47.726;3.298;2023-07-31T06:48:25;8.75;;;3.30;;
61702;SDS011;47622;47.726;3.298;2023-07-31T06:50:50;10.48;;;3.33;;
61702;SDS011;47622;47.726;3.298;2023-07-31T06:53:16;7.05;;;3.22;;
61702;SDS011;47622;47.726;3.298;2023-07-31T06:55:42;8.07;;;3.40;;
61702;SDS011;47622;47.726;3.298;2023-07-31T06:58:08;10.25;;;3.47;;
61702;SDS011;47622;47.726;3.298;2023-07-31T07:00:34;6.30;;;2.97;;
61702;SDS011;47622;47.726;3.298;2023-07-31T07:02:59;9.02;;;3.25;;
61702;SDS011;47622;47.726;3.298;2023-07-31T07:05:25;8.93;;;3.17;;
61702;SDS011;47622;47.726;3.298;2023-07-31T07:07:51;14.73;;;3.50;;
61702;SDS011;47622;47.726;3.298;2023-07-31T07:10:17;12.93;;;3.38;;
61702;SDS011;47622;47.726;3.298;2023-07-31T07:12:43;7.28;;;3.22;;
61702;SDS011;47622;47.726;3.298;2023-07-31T07:15:09;10.13;;;4.05;;
61702;SDS011;47622;47.726;3.298;2023-07-31T07:17:34;10.10;;;3.60;;
61702;SDS011;47622;47.726;3.298;2023-07-31T07:20:00;8.80;;;3.33;;
61702;SDS011;47622;47.726;3.298;2023-07-31T07:22:26;9.80;;;3.60;;
61702;SDS011;47622;47.726;3.298;2023-07-31T07:24:52;10.57;;;3.88;;
61702;SDS011;47622;47.726;3.298;2023-07-31T07:27:18;12.32;;;4.10;;
61702;SDS011;47622;47.726;3.298;2023-07-31T07:29:45;8.95;;;3.58;;
61702;SDS011;47622;47.726;3.298;2023-07-31T07:32:11;9.23;;;3.63;;
61702;SDS011;47622;47.726;3.298;2023-07-31T07:34:38;9.40;;;3.75;;
61702;SDS011;47622;47.726;3.298;2023-07-31T07:37:04;9.05;;;3.50;;
61702;SDS011;47622;47.726;3.298;2023-07-31T07:39:30;8.20;;;3.17;;
61702;SDS011;47622;47.726;3.298;2023-07-31T07:41:55;8.05;;;3.25;;
61702;SDS011;47622;47.726;3.298;2023-07-31T07:44:21;12.07;;;3.78;;
61702;SDS011;47622;47.726;3.298;2023-07-31T07:46:46;9.27;;;3.63;;
61702;SDS011;47622;47.726;3.298;2023-07-31T07:49:12;10.35;;;3.88;;
61702;SDS011;47622;47.726;3.298;2023-07-31T07:51:38;9.15;;;3.97;;
61702;SDS011;47622;47.726;3.298;2023-07-31T07:54:03;10.73;;;3.55;;
61702;SDS011;47622;47.726;3.298;2023-07-31T07:56:29;13.13;;;3.63;;
61702;SDS011;47622;47.726;3.298;2023-07-31T07:58:54;10.48;;;3.85;;
61702;SDS011;47622;47.726;3.298;2023-07-31T08:01:20;11.32;;;4.00;;
61702;SDS011;47622;47.726;3.298;2023-07-31T08:03:46;11.82;;;3.60;;
61702;SDS011;47622;47.726;3.298;2023-07-31T08:06:12;6.88;;;2.97;;
61702;SDS011;47622;47.726;3.298;2023-07-31T08:08:38;8.27;;;3.20;;
61702;SDS011;47622;47.726;3.298;2023-07-31T08:11:05;9.30;;;3.60;;
61702;SDS011;47622;47.726;3.298;2023-07-31T08:13:31;7.57;;;3.15;;
61702;SDS011;47622;47.726;3.298;2023-07-31T08:15:56;6.95;;;2.97;;
61702;SDS011;47622;47.726;3.298;2023-07-31T08:18:22;8.90;;;3.00;;
61702;SDS011;47622;47.726;3.298;2023-07-31T08:20:48;10.70;;;3.58;;
61702;SDS011;47622;47.726;3.298;2023-07-31T08:23:14;5.50;;;2.65;;
61702;SDS011;47622;47.726;3.298;2023-07-31T08:25:39;7.00;;;3.20;;
61702;SDS011;47622;47.726;3.298;2023-07-31T08:28:05;8.38;;;3.15;;
61702;SDS011;47622;47.726;3.298;2023-07-31T08:30:32;9.23;;;3.13;;
61702;SDS011;47622;47.726;3.298;2023-07-31T08:33:00;5.53;;;3.00;;
61702;SDS011;47622;47.726;3.298;2023-07-31T08:35:26;8.90;;;3.15;;
61702;SDS011;47622;47.726;3.298;2023-07-31T08:37:55;7.25;;;3.10;;
61702;SDS011;47622;47.726;3.298;2023-07-31T08:40:20;6.50;;;3.47;;
61702;SDS011;47622;47.726;3.298;2023-07-31T08:42:47;6.20;;;2.75;;
61702;SDS011;47622;47.726;3.298;2023-07-31T08:45:18;6.80;;;2.97;;
61702;SDS011;47622;47.726;3.298;2023-07-31T08:47:45;9.25;;;2.90;;
61702;SDS011;47622;47.726;3.298;2023-07-31T08:50:15;6.13;;;3.38;;
61702;SDS011;47622;47.726;3.298;2023-07-31T08:52:41;6.18;;;2.85;;
61702;SDS011;47622;47.726;3.298;2023-07-31T08:55:07;8.05;;;3.13;;
61702;SDS011;47622;47.726;3.298;2023-07-31T08:57:34;9.02;;;3.33;;
61702;SDS011;47622;47.726;3.298;2023-07-31T09:00:05;7.07;;;3.40;;
61702;SDS011;47622;47.726;3.298;2023-07-31T09:05:10;6.78;;;3.13;;
61702;SDS011;47622;47.726;3.298;2023-07-31T09:07:37;7.35;;;3.35;;
61702;SDS011;47622;47.726;3.298;2023-07-31T09:10:03;7.85;;;3.10;;
61702;SDS011;47622;47.726;3.298;2023-07-31T09:12:30;7.45;;;3.28;;
61702;SDS011;47622;47.726;3.298;2023-07-31T09:14:56;7.88;;;3.10;;
61702;SDS011;47622;47.726;3.298;2023-07-31T09:17:32;6.28;;;3.25;;
61702;SDS011;47622;47.726;3.298;2023-07-31T09:20:17;6.50;;;2.70;;
61702;SDS011;47622;47.726;3.298;2023-07-31T09:22:45;9.38;;;3.60;;
61702;SDS011;47622;47.726;3.298;2023-07-31T09:27:56;8.68;;;3.25;;
61702;SDS011;47622;47.726;3.298;2023-07-31T09:30:23;5.53;;;3.07;;
61702;SDS011;47622;47.726;3.298;2023-07-31T09:32:50;6.00;;;3.45;;
61702;SDS011;47622;47.726;3.298;2023-07-31T09:37:53;8.55;;;3.47;;
61702;SDS011;47622;47.726;3.298;2023-07-31T09:40:31;8.45;;;3.65;;
61702;SDS011;47622;47.726;3.298;2023-07-31T09:43:07;8.00;;;3.40;;
61702;SDS011;47622;47.726;3.298;2023-07-31T09:45:36;6.03;;;3.03;;
61702;SDS011;47622;47.726;3.298;2023-07-31T09:48:03;6.75;;;3.47;;
61702;SDS011;47622;47.726;3.298;2023-07-31T09:50:31;7.10;;;3.42;;
61702;SDS011;47622;47.726;3.298;2023-07-31T09:52:57;10.45;;;3.10;;
61702;SDS011;47622;47.726;3.298;2023-07-31T09:55:23;6.43;;;3.38;;
61702;SDS011;47622;47.726;3.298;2023-07-31T09:57:49;9.05;;;3.50;;
61702;SDS011;47622;47.726;3.298;2023-07-31T10:00:16;6.32;;;3.10;;
61702;SDS011;47622;47.726;3.298;2023-07-31T10:02:46;7.60;;;3.45;;
61702;SDS011;47622;47.726;3.298;2023-07-31T10:05:13;7.95;;;3.30;;
61702;SDS011;47622;47.726;3.298;2023-07-31T10:07:42;8.55;;;3.70;;
61702;SDS011;47622;47.726;3.298;2023-07-31T10:10:16;7.63;;;3.25;;
61702;SDS011;47622;47.726;3.298;2023-07-31T10:12:42;6.68;;;3.17;;
61702;SDS011;47622;47.726;3.298;2023-07-31T10:15:11;9.85;;;3.50;;
61702;SDS011;47622;47.726;3.298;2023-07-31T10:17:36;7.45;;;3.30;;
61702;SDS011;47622;47.726;3.298;2023-07-31T10:20:03;9.48;;;3.15;;
61702;SDS011;47622;47.726;3.298;2023-07-31T10:22:31;5.28;;;2.85;;
61702;SDS011;47622;47.726;3.298;2023-07-31T10:24:57;6.75;;;2.90;;
61702;SDS011;47622;47.726;3.298;2023-07-31T10:27:25;12.90;;;3.20;;
61702;SDS011;47622;47.726;3.298;2023-07-31T10:29:53;7.05;;;2.90;;
61702;SDS011;47622;47.726;3.298;2023-07-31T10:32:21;8.10;;;3.22;;
61702;SDS011;47622;47.726;3.298;2023-07-31T10:34:50;5.68;;;2.80;;
61702;SDS011;47622;47.726;3.298;2023-07-31T10:37:27;6.95;;;3.08;;
61702;SDS011;47622;47.726;3.298;2023-07-31T10:39:57;6.15;;;2.97;;
61702;SDS011;47622;47.726;3.298;2023-07-31T10:42:28;6.85;;;2.97;;
61702;SDS011;47622;47.726;3.298;2023-07-31T10:48:05;6.15;;;2.83;;
61702;SDS011;47622;47.726;3.298;2023-07-31T10:50:32;7.30;;;3.00;;
61702;SDS011;47622;47.726;3.298;2023-07-31T10:53:02;6.90;;;2.88;;
61702;SDS011;47622;47.726;3.298;2023-07-31T10:58:04;11.13;;;3.58;;
61702;SDS011;47622;47.726;3.298;2023-07-31T11:00:36;10.10;;;3.15;;
61702;SDS011;47622;47.726;3.298;2023-07-31T11:10:38;8.00;;;3.03;;
61702;SDS011;47622;47.726;3.298;2023-07-31T11:13:04;6.93;;;2.90;;
61702;SDS011;47622;47.726;3.298;2023-07-31T11:15:30;5.55;;;3.03;;
61702;SDS011;47622;47.726;3.298;2023-07-31T11:17:56;9.43;;;2.80;;
61702;SDS011;47622;47.726;3.298;2023-07-31T11:20:24;5.88;;;2.65;;
61702;SDS011;47622;47.726;3.298;2023-07-31T11:22:50;6.45;;;3.75;;
61702;SDS011;47622;47.726;3.298;2023-07-31T11:25:16;3.83;;;2.60;;
61702;SDS011;47622;47.726;3.298;2023-07-31T11:27:43;5.25;;;2.67;;
61702;SDS011;47622;47.726;3.298;2023-07-31T11:30:09;5.88;;;2.90;;
61702;SDS011;47622;47.726;3.298;2023-07-31T11:32:38;6.53;;;2.80;;
61702;SDS011;47622;47.726;3.298;2023-07-31T11:35:04;8.20;;;3.00;;
61702;SDS011;47622;47.726;3.298;2023-07-31T11:37:40;7.13;;;3.42;;
61702;SDS011;47622;47.726;3.298;2023-07-31T11:40:07;10.23;;;3.03;;
61702;SDS011;47622;47.726;3.298;2023-07-31T11:42:34;10.52;;;3.35;;
61702;SDS011;47622;47.726;3.298;2023-07-31T11:45:03;8.32;;;3.30;;
61702;SDS011;47622;47.726;3.298;2023-07-31T11:47:29;17.35;;;4.07;;
61702;SDS011;47622;47.726;3.298;2023-07-31T11:52:34;6.03;;;3.10;;
61702;SDS011;47622;47.726;3.298;2023-07-31T11:55:04;6.45;;;3.10;;
61702;SDS011;47622;47.726;3.298;2023-07-31T11:57:32;5.35;;;2.80;;
61702;SDS011;47622;47.726;3.298;2023-07-31T11:59:58;6.63;;;2.90;;
61702;SDS011;47622;47.726;3.298;2023-07-31T12:02:24;7.05;;;3.50;;
61702;SDS011;47622;47.726;3.298;2023-07-31T12:04:49;6.57;;;3.05;;
61702;SDS011;47622;47.726;3.298;2023-07-31T12:07:15;5.45;;;2.85;;
61702;SDS011;47622;47.726;3.298;2023-07-31T12:09:53;7.70;;;3.28;;
61702;SDS011;47622;47.726;3.298;2023-07-31T12:12:24;6.03;;;2.58;;
61702;SDS011;47622;47.726;3.298;2023-07-31T12:14:50;7.85;;;2.83;;
61702;SDS011;47622;47.726;3.298;2023-07-31T12:17:17;6.38;;;2.70;;
61702;SDS011;47622;47.726;3.298;2023-07-31T12:19:45;8.48;;;2.70;;
61702;SDS011;47622;47.726;3.298;2023-07-31T12:22:11;6.88;;;3.13;;
61702;SDS011;47622;47.726;3.298;2023-07-31T12:24:41;8.40;;;3.08;;
61702;SDS011;47622;47.726;3.298;2023-07-31T12:27:12;8.75;;;3.17;;
61702;SDS011;47622;47.726;3.298;2023-07-31T12:29:39;7.85;;;3.10;;
61702;SDS011;47622;47.726;3.298;2023-07-31T12:32:22;7.90;;;2.92;;
61702;SDS011;47622;47.726;3.298;2023-07-31T12:34:53;5.90;;;2.92;;
61702;SDS011;47622;47.726;3.298;2023-07-31T12:37:20;7.50;;;2.90;;
61702;SDS011;47622;47.726;3.298;2023-07-31T12:39:46;7.18;;;2.85;;
61702;SDS011;47622;47.726;3.298;2023-07-31T12:42:11;5.07;;;3.00;;
61702;SDS011;47622;47.726;3.298;2023-07-31T12:44:37;7.63;;;3.08;;
61702;SDS011;47622;47.726;3.298;2023-07-31T12:47:03;11.20;;;3.28;;
61702;SDS011;47622;47.726;3.298;2023-07-31T12:49:29;8.13;;;3.25;;
61702;SDS011;47622;47.726;3.298;2023-07-31T12:51:54;6.97;;;3.33;;
61702;SDS011;47622;47.726;3.298;2023-07-31T12:54:20;7.70;;;3.20;;
61702;SDS011;47622;47.726;3.298;2023-07-31T12:56:45;8.73;;;3.10;;
61702;SDS011;47622;47.726;3.298;2023-07-31T12:59:11;7.85;;;3.42;;
61702;SDS011;47622;47.726;3.298;2023-07-31T13:01:37;4.72;;;2.90;;
61702;SDS011;47622;47.726;3.298;2023-07-31T13:04:03;5.13;;;2.95;;
61702;SDS011;47622;47.726;3.298;2023-07-31T13:06:29;6.57;;;2.67;;
61702;SDS011;47622;47.726;3.298;2023-07-31T13:08:55;7.05;;;2.95;;
61702;SDS011;47622;47.726;3.298;2023-07-31T13:11:20;7.53;;;3.47;;
61702;SDS011;47622;47.726;3.298;2023-07-31T13:13:46;4.13;;;2.50;;
61702;SDS011;47622;47.726;3.298;2023-07-31T13:16:11;5.85;;;2.65;;
61702;SDS011;47622;47.726;3.298;2023-07-31T13:18:37;5.47;;;2.65;;
61702;SDS011;47622;47.726;3.298;2023-07-31T13:21:02;7.10;;;3.03;;
61702;SDS011;47622;47.726;3.298;2023-07-31T13:23:28;6.45;;;3.10;;
61702;SDS011;47622;47.726;3.298;2023-07-31T13:25:54;7.53;;;2.90;;
61702;SDS011;47622;47.726;3.298;2023-07-31T13:28:19;6.28;;;3.00;;
61702;SDS011;47622;47.726;3.298;2023-07-31T13:30:45;7.15;;;2.72;;
61702;SDS011;47622;47.726;3.298;2023-07-31T13:33:11;6.80;;;3.13;;
61702;SDS011;47622;47.726;3.298;2023-07-31T13:35:36;8.35;;;3.35;;
61702;SDS011;47622;47.726;3.298;2023-07-31T13:38:02;9.32;;;3.08;;
61702;SDS011;47622;47.726;3.298;2023-07-31T13:40:27;8.15;;;3.05;;
61702;SDS011;47622;47.726;3.298;2023-07-31T13:42:53;5.80;;;2.80;;
61702;SDS011;47622;47.726;3.298;2023-07-31T13:45:19;6.15;;;2.95;;
61702;SDS011;47622;47.726;3.298;2023-07-31T13:47:45;5.32;;;2.90;;
61702;SDS011;47622;47.726;3.298;2023-07-31T13:50:10;7.18;;;3.33;;
61702;SDS011;47622;47.726;3.298;2023-07-31T13:52:36;6.93;;;3.22;;
61702;SDS011;47622;47.726;3.298;2023-07-31T13:55:01;6.47;;;2.90;;
61702;SDS011;47622;47.726;3.298;2023-07-31T13:57:27;8.57;;;3.10;;
61702;SDS011;47622;47.726;3.298;2023-07-31T13:59:53;6.47;;;3.00;;
61702;SDS011;47622;47.726;3.298;2023-07-31T14:02:19;5.82;;;3.13;;
61702;SDS011;47622;47.726;3.298;2023-07-31T14:04:44;7.60;;;2.63;;
61702;SDS011;47622;47.726;3.298;2023-07-31T14:07:10;6.88;;;3.17;;
61702;SDS011;47622;47.726;3.298;2023-07-31T14:09:36;6.47;;;3.30;;
61702;SDS011;47622;47.726;3.298;2023-07-31T14:12:01;5.82;;;3.10;;
61702;SDS011;47622;47.726;3.298;2023-07-31T14:14:27;7.53;;;3.15;;
61702;SDS011;47622;47.726;3.298;2023-07-31T14:16:53;6.07;;;3.22;;
61702;SDS011;47622;47.726;3.298;2023-07-31T14:19:19;7.75;;;3.25;;
61702;SDS011;47622;47.726;3.298;2023-07-31T14:21:45;6.28;;;3.30;;
61702;SDS011;47622;47.726;3.298;2023-07-31T14:24:11;6.95;;;3.08;;
61702;SDS011;47622;47.726;3.298;2023-07-31T14:26:36;6.07;;;3.00;;
61702;SDS011;47622;47.726;3.298;2023-07-31T14:29:02;6.65;;;2.92;;
61702;SDS011;47622;47.726;3.298;2023-07-31T14:31:27;5.18;;;3.05;;
61702;SDS011;47622;47.726;3.298;2023-07-31T14:33:53;6.05;;;3.05;;
61702;SDS011;47622;47.726;3.298;2023-07-31T14:36:19;7.55;;;3.28;;
61702;SDS011;47622;47.726;3.298;2023-07-31T14:38:44;4.60;;;2.85;;
61702;SDS011;47622;47.726;3.298;2023-07-31T14:41:10;10.73;;;3.42;;
61702;SDS011;47622;47.726;3.298;2023-07-31T14:43:35;6.13;;;3.13;;
61702;SDS011;47622;47.726;3.298;2023-07-31T14:46:01;5.75;;;2.83;;
61702;SDS011;47622;47.726;3.298;2023-07-31T14:48:26;7.95;;;3.20;;
61702;SDS011;47622;47.726;3.298;2023-07-31T14:50:52;7.05;;;3.00;;
61702;SDS011;47622;47.726;3.298;2023-07-31T14:53:19;7.63;;;3.15;;
61702;SDS011;47622;47.726;3.298;2023-07-31T14:55:44;7.03;;;3.80;;
61702;SDS011;47622;47.726;3.298;2023-07-31T14:58:10;9.85;;;3.50;;
61702;SDS011;47622;47.726;3.298;2023-07-31T15:00:36;5.65;;;3.13;;
61702;SDS011;47622;47.726;3.298;2023-07-31T15:03:02;7.68;;;3.20;;
61702;SDS011;47622;47.726;3.298;2023-07-31T15:05:28;6.90;;;3.25;;
61702;SDS011;47622;47.726;3.298;2023-07-31T15:07:54;10.57;;;3.78;;